createdAt,value
2023-03-04T00:00:48.386Z,25.11
2023-03-04T00:03:37.281Z,25.07
2023-03-04T00:06:26.075Z,25.05
2023-03-04T00:09:14.691Z,25.03
2023-03-04T00:12:03.300Z,25.01
2023-03-04T00:14:51.872Z,25.01
2023-03-04T00:17:41.947Z,24.98
2023-03-04T00:20:30.599Z,24.94
2023-03-04T00:23:19.226Z,24.96
2023-03-04T00:26:07.995Z,25.00
2023-03-04T00:29:00.689Z,24.98
2023-03-04T00:31:49.491Z,24.98
2023-03-04T00:34:40.825Z,25.02
2023-03-04T00:37:29.769Z,24.96
2023-03-04T00:40:18.750Z,25.05
2023-03-04T00:43:07.466Z,24.99
2023-03-04T00:45:56.467Z,25.00
2023-03-04T00:48:50.615Z,25.00
2023-03-04T00:51:42.330Z,24.93
2023-03-04T00:54:30.982Z,24.90
2023-03-04T00:57:19.754Z,24.96
2023-03-04T01:00:09.536Z,24.84
2023-03-04T01:02:58.289Z,24.87
2023-03-04T01:05:46.921Z,24.88
2023-03-04T01:08:37.083Z,24.82
2023-03-04T01:11:26.100Z,24.86
2023-03-04T01:14:14.718Z,24.89
2023-03-04T01:17:03.394Z,24.86
2023-03-04T01:19:52.153Z,24.80
2023-03-04T01:22:40.891Z,24.90
2023-03-04T01:25:30.871Z,24.82
2023-03-04T01:28:19.599Z,24.79
2023-03-04T01:31:08.387Z,24.75
2023-03-04T01:33:57.528Z,24.77
2023-03-04T01:36:46.119Z,24.80
2023-03-04T01:39:34.751Z,24.79
2023-03-04T01:42:35.315Z,24.80
2023-03-04T01:45:24.086Z,24.80
2023-03-04T01:48:16.946Z,24.78
2023-03-04T01:51:06.798Z,24.79
2023-03-04T01:53:55.479Z,24.73
2023-03-04T01:56:46.169Z,24.73
2023-03-04T01:59:36.137Z,24.76
2023-03-04T02:02:24.856Z,24.76
2023-03-04T02:05:13.714Z,24.72
2023-03-04T02:08:02.663Z,24.73
2023-03-04T02:10:52.089Z,24.73
2023-03-04T02:13:40.695Z,24.70
2023-03-04T02:16:30.856Z,24.62
2023-03-04T02:19:30.124Z,24.64
2023-03-04T02:22:18.828Z,24.66
2023-03-04T02:25:10.387Z,24.67
2023-03-04T02:28:03.521Z,24.67
2023-03-04T02:30:52.931Z,24.60
2023-03-04T02:33:41.632Z,24.64
2023-03-04T02:36:31.012Z,24.65
2023-03-04T02:39:25.528Z,24.62
2023-03-04T02:42:16.110Z,24.55
2023-03-04T02:45:06.903Z,24.56
2023-03-04T02:47:55.564Z,24.55
2023-03-04T02:50:46.049Z,24.63
2023-03-04T02:53:34.797Z,24.61
2023-03-04T02:56:23.477Z,24.64
2023-03-04T02:59:12.079Z,24.65
2023-03-04T03:02:02.330Z,24.59
2023-03-04T03:04:51.053Z,24.58
2023-03-04T03:07:39.675Z,24.70
2023-03-04T03:10:28.482Z,24.68
2023-03-04T03:13:17.317Z,24.68
2023-03-04T03:16:06.556Z,24.67
2023-03-04T03:18:56.822Z,24.72
2023-03-04T03:21:45.633Z,24.68
2023-03-04T03:24:34.291Z,24.71
2023-03-04T03:27:23.149Z,24.73
2023-03-04T03:30:14.396Z,24.81
2023-03-04T03:33:03.204Z,24.79
2023-03-04T03:35:53.445Z,24.75
2023-03-04T03:38:42.191Z,24.69
2023-03-04T03:41:31.016Z,24.66
2023-03-04T03:44:20.107Z,24.64
2023-03-04T03:47:08.912Z,24.58
2023-03-04T03:49:57.724Z,24.58
2023-03-04T03:52:47.908Z,24.66
2023-03-04T03:55:36.812Z,24.57
2023-03-04T03:58:26.797Z,24.57
2023-03-04T04:01:15.654Z,24.56
2023-03-04T04:04:04.394Z,24.56
2023-03-04T04:06:53.135Z,24.65
2023-03-04T04:09:43.333Z,24.63
2023-03-04T04:12:32.131Z,24.59
2023-03-04T04:15:21.132Z,24.64
2023-03-04T04:18:10.114Z,24.56
2023-03-04T04:20:58.887Z,24.62
2023-03-04T04:23:47.509Z,24.62
2023-03-04T04:26:37.517Z,24.68
2023-03-04T04:29:26.294Z,24.66
2023-03-04T04:32:14.935Z,24.62
2023-03-04T04:35:03.830Z,24.68
2023-03-04T04:37:52.538Z,24.66
2023-03-04T04:40:41.151Z,24.69
2023-03-04T04:43:31.191Z,24.67
2023-03-04T04:46:20.390Z,24.69
2023-03-04T04:49:09.752Z,24.63
2023-03-04T04:52:00.504Z,24.66
2023-03-04T04:54:49.342Z,24.58
2023-03-04T04:57:38.128Z,24.54
2023-03-04T05:00:28.175Z,24.52
2023-03-04T05:03:18.507Z,24.54
2023-03-04T05:06:09.402Z,24.55
2023-03-04T05:08:58.154Z,24.49
2023-03-04T05:11:46.737Z,24.55
2023-03-04T05:14:35.394Z,24.58
2023-03-04T05:17:25.650Z,24.58
2023-03-04T05:20:14.798Z,24.57
2023-03-04T05:23:03.503Z,24.55
2023-03-04T05:25:52.728Z,24.58
2023-03-04T05:28:41.709Z,24.62
2023-03-04T05:31:30.694Z,24.55
2023-03-04T05:34:20.757Z,24.56
2023-03-04T05:37:09.393Z,24.49
2023-03-04T05:39:57.985Z,24.53
2023-03-04T05:42:46.691Z,24.55
2023-03-04T05:45:35.878Z,24.55
2023-03-04T05:48:24.958Z,24.58
2023-03-04T05:51:15.070Z,24.51
2023-03-04T05:54:03.749Z,24.61
2023-03-04T05:56:52.379Z,24.53
2023-03-04T05:59:44.007Z,24.51
2023-03-04T06:02:32.695Z,24.53
2023-03-04T06:05:22.321Z,24.55
2023-03-04T06:08:12.641Z,24.62
2023-03-04T06:11:01.259Z,24.61
2023-03-04T06:13:49.975Z,24.64
2023-03-04T06:16:38.639Z,24.57
2023-03-04T06:19:27.238Z,24.59
2023-03-04T06:22:18.343Z,24.61
2023-03-04T06:25:09.513Z,24.58
2023-03-04T06:27:58.189Z,24.54
2023-03-04T06:30:46.906Z,24.53
2023-03-04T06:33:35.513Z,24.55
2023-03-04T06:36:24.185Z,24.54
2023-03-04T06:39:13.118Z,24.57
2023-03-04T06:42:03.101Z,24.47
2023-03-04T06:44:51.723Z,24.53
2023-03-04T06:47:40.377Z,24.44
2023-03-04T06:50:29.008Z,24.48
2023-03-04T06:53:17.705Z,24.54
2023-03-04T06:56:07.566Z,24.52
2023-03-04T06:58:57.616Z,24.49
2023-03-04T07:01:46.216Z,24.46
2023-03-04T07:04:38.126Z,24.41
2023-03-04T07:07:27.335Z,24.38
2023-03-04T07:10:15.972Z,24.39
2023-03-04T07:13:04.788Z,24.44
2023-03-04T07:15:54.905Z,24.43
2023-03-04T07:18:43.656Z,24.38
2023-03-04T07:21:32.272Z,24.40
2023-03-04T07:24:22.163Z,24.35
2023-03-04T07:27:10.783Z,24.37
2023-03-04T07:29:59.483Z,24.35
2023-03-04T07:32:49.628Z,24.31
2023-03-04T07:35:38.574Z,24.33
2023-03-04T07:38:27.162Z,24.33
2023-03-04T07:41:16.115Z,24.29
2023-03-04T07:44:06.117Z,24.33
2023-03-04T07:46:55.955Z,24.31
2023-03-04T07:49:46.034Z,24.29
2023-03-04T07:52:34.767Z,24.34
2023-03-04T07:55:25.263Z,24.32
2023-03-04T07:58:13.958Z,24.33
2023-03-04T08:01:02.642Z,24.33
2023-03-04T08:03:51.312Z,24.37
2023-03-04T08:06:42.018Z,24.40
2023-03-04T08:09:31.522Z,24.38
2023-03-04T08:12:20.387Z,24.41
2023-03-04T08:15:10.457Z,24.42
2023-03-04T08:17:59.094Z,24.42
2023-03-04T08:20:47.735Z,24.40
2023-03-04T08:23:37.697Z,24.48
2023-03-04T08:26:30.551Z,24.53
2023-03-04T08:29:21.597Z,24.60
2023-03-04T08:32:13.396Z,24.88
2023-03-04T08:35:02.421Z,24.90
2023-03-04T08:37:51.001Z,25.02
2023-03-04T08:40:41.302Z,25.10
2023-03-04T08:43:31.209Z,25.16
2023-03-04T08:46:41.832Z,25.12
2023-03-04T08:49:30.584Z,25.16
2023-03-04T08:52:19.323Z,25.23
2023-03-04T08:55:08.717Z,25.33
2023-03-04T08:58:00.567Z,25.32
2023-03-04T09:00:51.553Z,25.29
2023-03-04T09:03:40.535Z,25.35
2023-03-04T09:06:29.520Z,25.30
2023-03-04T09:09:18.270Z,25.29
2023-03-04T09:12:07.443Z,25.30
2023-03-04T09:15:10.335Z,25.30
2023-03-04T09:17:59.985Z,25.36
2023-03-04T09:20:49.086Z,25.37
2023-03-04T09:23:37.903Z,25.31
2023-03-04T09:26:28.944Z,25.23
2023-03-04T09:29:17.610Z,25.19
2023-03-04T09:32:08.583Z,25.28
2023-03-04T09:34:57.322Z,25.14
2023-03-04T09:37:46.723Z,25.18
2023-03-04T09:40:41.065Z,25.21
2023-03-04T09:43:32.033Z,25.26
2023-03-04T09:46:24.878Z,25.23
2023-03-04T09:49:15.337Z,25.18
2023-03-04T09:52:07.606Z,25.22
2023-03-04T09:55:04.815Z,25.20
2023-03-04T09:57:55.608Z,25.00
2023-03-04T10:00:47.571Z,25.05
2023-03-04T10:03:44.442Z,25.08
2023-03-04T10:06:35.580Z,24.98
2023-03-04T10:09:27.120Z,25.01
2023-03-04T10:12:19.157Z,24.80
2023-03-04T10:15:25.852Z,24.68
2023-03-04T10:18:23.440Z,24.66
2023-03-04T10:21:21.856Z,24.39
2023-03-04T10:24:14.791Z,24.27
2023-03-04T10:27:06.788Z,24.22
2023-03-04T10:29:55.671Z,24.21
2023-03-04T10:32:49.187Z,24.23
2023-03-04T10:35:38.793Z,24.18
2023-03-04T10:38:27.900Z,24.21
2023-03-04T10:41:19.700Z,24.22
2023-03-04T10:44:17.640Z,24.08
2023-03-04T10:47:14.587Z,23.97
2023-03-04T10:50:06.133Z,23.97
2023-03-04T10:52:55.946Z,23.88
2023-03-04T10:55:46.193Z,23.83
2023-03-04T10:58:36.229Z,23.80
2023-03-04T11:01:25.452Z,23.84
2023-03-04T11:04:19.536Z,23.79
2023-03-04T11:07:11.279Z,23.73
2023-03-04T11:10:11.310Z,23.68
2023-03-04T11:13:02.967Z,23.65
2023-03-04T11:15:58.191Z,23.60
2023-03-04T11:18:49.193Z,23.61
2023-03-04T11:21:41.822Z,23.60
2023-03-04T11:24:31.879Z,23.61
2023-03-04T11:27:22.899Z,23.56
2023-03-04T11:30:34.369Z,23.57
2023-03-04T11:33:29.599Z,23.57
2023-03-04T11:36:28.320Z,23.58
2023-03-04T11:39:23.485Z,23.55
2023-03-04T11:42:20.316Z,23.56
2023-03-04T11:45:27.926Z,23.56
2023-03-04T11:48:21.490Z,23.53
2023-03-04T11:51:15.423Z,23.56
2023-03-04T11:54:14.495Z,23.87
2023-03-04T11:57:10.834Z,23.88
2023-03-04T12:00:20.378Z,24.02
2023-03-04T12:03:29.448Z,24.04
2023-03-04T12:06:27.159Z,24.11
2023-03-04T12:09:27.868Z,24.25
2023-03-04T12:12:30.527Z,24.17
2023-03-04T12:15:23.000Z,24.17
2023-03-04T12:18:23.967Z,24.45
2023-03-04T12:21:21.579Z,24.47
2023-03-04T12:24:25.364Z,24.41
2023-03-04T12:27:21.547Z,24.42
2023-03-04T12:30:19.293Z,24.44
2023-03-04T12:33:16.788Z,24.34
2023-03-04T12:36:20.039Z,24.42
2023-03-04T12:39:23.314Z,24.42
2023-03-04T12:42:22.391Z,24.44
2023-03-04T12:45:18.738Z,24.19
2023-03-04T12:48:12.838Z,24.10
2023-03-04T12:51:11.677Z,24.05
2023-03-04T12:54:08.361Z,24.11
2023-03-04T12:57:00.422Z,24.18
2023-03-04T12:59:56.260Z,24.04
2023-03-04T13:02:54.114Z,24.04
2023-03-04T13:06:05.130Z,24.05
2023-03-04T13:09:00.508Z,24.13
2023-03-04T13:11:54.946Z,24.22
2023-03-04T13:15:28.874Z,24.35
2023-03-04T13:18:33.217Z,24.32
2023-03-04T13:21:25.929Z,24.43
2023-03-04T13:24:46.301Z,24.58
2023-03-04T13:27:49.387Z,24.61
2023-03-04T13:30:45.603Z,24.80
2023-03-04T13:34:07.183Z,24.69
2023-03-04T13:36:59.278Z,24.67
2023-03-04T13:40:31.132Z,24.58
2023-03-04T13:43:26.797Z,24.62
2023-03-04T13:46:41.087Z,24.67
2023-03-04T13:49:29.962Z,24.51
2023-03-04T13:52:39.356Z,24.42
2023-03-04T13:55:39.374Z,24.39
2023-03-04T13:58:29.029Z,24.40
2023-03-04T14:01:32.916Z,24.52
2023-03-04T14:04:23.374Z,24.54
2023-03-04T14:07:23.857Z,24.50
2023-03-04T14:10:24.527Z,24.47
2023-03-04T14:13:13.508Z,24.48
2023-03-04T14:16:02.606Z,24.56
2023-03-04T14:19:07.057Z,24.56
2023-03-04T14:21:56.819Z,24.50
2023-03-04T14:24:58.239Z,24.58
2023-03-04T14:27:47.656Z,24.52
2023-03-04T14:30:43.252Z,24.57
2023-03-04T14:33:33.333Z,24.53
2023-03-04T14:36:25.962Z,24.52
2023-03-04T14:39:16.983Z,24.63
2023-03-04T14:42:12.032Z,24.49
2023-03-04T14:45:02.611Z,24.56
2023-03-04T14:47:52.150Z,24.71
2023-03-04T14:50:50.108Z,24.83
2023-03-04T14:53:55.909Z,24.82
2023-03-04T14:56:46.249Z,24.84
2023-03-04T14:59:36.525Z,24.97
2023-03-04T15:02:33.202Z,25.03
2023-03-04T15:05:26.535Z,25.05
2023-03-04T15:08:23.790Z,25.03
2023-03-04T15:11:23.976Z,25.10
2023-03-04T15:14:43.830Z,25.07
2023-03-04T15:17:37.863Z,25.07
2023-03-04T15:20:29.752Z,25.02
2023-03-04T15:23:18.692Z,25.05
2023-03-04T15:26:11.114Z,25.07
2023-03-04T15:29:01.717Z,24.91
2023-03-04T15:31:51.818Z,24.87
2023-03-04T15:34:40.640Z,24.75
2023-03-04T15:37:30.603Z,24.86
2023-03-04T15:40:26.623Z,24.90
2023-03-04T15:43:17.279Z,24.98
2023-03-04T15:46:07.833Z,24.92
2023-03-04T15:48:56.718Z,24.72
2023-03-04T15:51:45.658Z,24.69
2023-03-04T15:54:34.903Z,24.68
2023-03-04T15:57:26.610Z,24.62
2023-03-04T16:00:18.137Z,24.54
2023-03-04T16:03:08.416Z,24.50
2023-03-04T16:05:57.213Z,24.56
2023-03-04T16:08:47.578Z,24.50
2023-03-04T16:11:39.206Z,24.53
2023-03-04T16:14:28.131Z,24.41
2023-03-04T16:17:17.463Z,24.43
2023-03-04T16:20:09.846Z,24.46
2023-03-04T16:23:00.740Z,24.57
2023-03-04T16:25:50.641Z,24.62
2023-03-04T16:28:46.194Z,24.78
2023-03-04T16:31:36.660Z,24.73
2023-03-04T16:34:25.482Z,24.76
2023-03-04T16:37:17.428Z,24.69
2023-03-04T16:40:07.665Z,24.87
2023-03-04T16:42:56.582Z,25.00
2023-03-04T16:45:45.983Z,25.09
2023-03-04T16:48:35.186Z,25.19
2023-03-04T16:51:25.128Z,25.09
2023-03-04T16:54:18.984Z,25.07
2023-03-04T16:57:09.062Z,25.16
2023-03-04T16:59:57.741Z,24.99
2023-03-04T17:02:46.841Z,25.00
2023-03-04T17:05:35.732Z,25.05
2023-03-04T17:08:24.650Z,25.12
2023-03-04T17:11:17.818Z,25.20
2023-03-04T17:14:06.584Z,25.24
2023-03-04T17:16:55.265Z,25.25
2023-03-04T17:19:43.935Z,25.22
2023-03-04T17:22:32.527Z,25.24
2023-03-04T17:25:21.340Z,25.30
2023-03-04T17:28:11.320Z,25.25
2023-03-04T17:31:00.170Z,25.30
2023-03-04T17:33:56.508Z,25.40
2023-03-04T17:36:45.144Z,25.32
2023-03-04T17:39:33.803Z,25.42
2023-03-04T17:42:22.651Z,25.44
2023-03-04T17:45:13.443Z,25.23
2023-03-04T17:48:02.161Z,25.11
2023-03-04T17:50:51.386Z,25.08
2023-03-04T17:53:40.694Z,25.17
2023-03-04T17:56:31.390Z,25.28
2023-03-04T17:59:20.028Z,25.40
2023-03-04T18:02:13.938Z,25.43
2023-03-04T18:05:06.755Z,25.48
2023-03-04T18:07:55.615Z,25.47
2023-03-04T18:10:44.555Z,25.55
2023-03-04T18:13:33.310Z,25.39
2023-03-04T18:16:26.613Z,25.42
2023-03-04T18:19:18.670Z,25.32
2023-03-04T18:22:07.577Z,25.31
2023-03-04T18:24:56.133Z,25.32
2023-03-04T18:27:44.862Z,25.30
2023-03-04T18:30:33.659Z,25.28
2023-03-04T18:33:22.684Z,25.28
2023-03-04T18:36:13.338Z,25.34
2023-03-04T18:39:04.621Z,25.35
2023-03-04T18:41:53.255Z,25.33
2023-03-04T18:44:42.043Z,25.28
2023-03-04T18:47:30.870Z,25.27
2023-03-04T18:50:20.582Z,25.27
2023-03-04T18:53:11.626Z,25.21
2023-03-04T18:56:05.528Z,25.26
2023-03-04T18:58:54.268Z,25.21
2023-03-04T19:01:43.396Z,25.28
2023-03-04T19:04:32.313Z,25.21
2023-03-04T19:07:21.179Z,25.22
2023-03-04T19:10:12.802Z,25.28
2023-03-04T19:13:02.195Z,25.28
2023-03-04T19:15:51.752Z,25.26
2023-03-04T19:18:40.617Z,25.26
2023-03-04T19:21:29.440Z,25.22
2023-03-04T19:24:18.305Z,25.20
2023-03-04T19:27:08.537Z,25.30
2023-03-04T19:29:57.382Z,25.28
2023-03-04T19:32:46.443Z,25.28
2023-03-04T19:35:37.388Z,25.15
2023-03-04T19:38:26.445Z,25.19
2023-03-04T19:41:16.541Z,25.18
2023-03-04T19:44:06.798Z,25.20
2023-03-04T19:46:55.662Z,25.21
2023-03-04T19:49:44.694Z,25.26
2023-03-04T19:52:33.704Z,25.25
2023-03-04T19:55:22.549Z,25.29
2023-03-04T19:58:11.244Z,25.37
2023-03-04T20:01:01.566Z,25.33
2023-03-04T20:03:50.440Z,25.36
2023-03-04T20:06:40.889Z,25.33
2023-03-04T20:09:29.919Z,25.40
2023-03-04T20:12:18.721Z,25.34
2023-03-04T20:15:09.364Z,25.44
2023-03-04T20:17:59.694Z,25.47
2023-03-04T20:20:48.924Z,25.41
2023-03-04T20:23:38.106Z,25.38
2023-03-04T20:26:26.905Z,25.38
2023-03-04T20:29:15.817Z,25.42
2023-03-04T20:32:05.499Z,25.45
2023-03-04T20:34:57.243Z,25.35
2023-03-04T20:37:46.635Z,25.32
2023-03-04T20:40:35.983Z,25.41
2023-03-04T20:43:26.998Z,25.43
2023-03-04T20:46:34.648Z,25.43
2023-03-04T20:49:25.636Z,25.32
2023-03-04T20:52:15.999Z,25.39
2023-03-04T20:55:04.757Z,25.35
2023-03-04T20:57:53.529Z,25.45
2023-03-04T21:00:45.378Z,25.48
2023-03-04T21:03:34.459Z,25.46
2023-03-04T21:06:25.307Z,25.37
2023-03-04T21:09:17.720Z,25.34
2023-03-04T21:12:06.869Z,25.38
2023-03-04T21:14:55.756Z,25.48
2023-03-04T21:17:44.633Z,25.46
2023-03-04T21:20:33.686Z,25.46
2023-03-04T21:23:22.797Z,25.51
2023-03-04T21:26:12.919Z,25.52
2023-03-04T21:29:01.689Z,25.47
2023-03-04T21:31:52.206Z,25.47
2023-03-04T21:34:42.933Z,25.51
2023-03-04T21:37:31.578Z,25.39
2023-03-04T21:40:23.210Z,25.39
2023-03-04T21:43:13.279Z,25.42
2023-03-04T21:46:01.955Z,25.30
2023-03-04T21:48:50.786Z,25.18
2023-03-04T21:51:39.726Z,25.17
2023-03-04T21:54:28.393Z,25.03
2023-03-04T21:57:17.170Z,25.09
2023-03-04T22:00:08.891Z,25.13
2023-03-04T22:02:57.578Z,25.03
2023-03-04T22:05:47.837Z,24.97
2023-03-04T22:08:45.742Z,25.01
2023-03-04T22:11:38.938Z,24.96
2023-03-04T22:14:29.442Z,24.94
2023-03-04T22:17:19.649Z,24.99
2023-03-04T22:20:12.472Z,25.01
2023-03-04T22:23:01.199Z,25.04
2023-03-04T22:25:49.852Z,25.09
2023-03-04T22:28:39.407Z,25.06
2023-03-04T22:31:30.969Z,25.00
2023-03-04T22:34:21.178Z,24.90
2023-03-04T22:37:09.767Z,24.92
2023-03-04T22:39:58.991Z,24.86
2023-03-04T22:42:48.605Z,24.81
2023-03-04T22:45:37.291Z,24.91
2023-03-04T22:48:26.110Z,24.88
2023-03-04T22:51:16.357Z,24.87
2023-03-04T22:54:05.268Z,24.88
2023-03-04T22:56:53.901Z,24.88
2023-03-04T22:59:42.591Z,24.86
2023-03-04T23:02:31.259Z,24.94
2023-03-04T23:05:21.569Z,24.86
2023-03-04T23:08:11.558Z,24.80
2023-03-04T23:11:00.169Z,24.83
2023-03-04T23:13:49.741Z,24.86
2023-03-04T23:16:43.288Z,24.96
2023-03-04T23:19:31.953Z,24.97
2023-03-04T23:22:20.844Z,24.91
2023-03-04T23:25:11.561Z,24.90
2023-03-04T23:28:00.281Z,24.96
2023-03-04T23:30:49.042Z,24.92
2023-03-04T23:33:39.502Z,24.88
2023-03-04T23:36:29.556Z,24.88
2023-03-04T23:39:18.422Z,24.85
2023-03-04T23:42:08.842Z,24.82
2023-03-04T23:44:57.636Z,24.82
2023-03-04T23:47:46.381Z,24.80
2023-03-04T23:50:35.830Z,24.78
2023-03-04T23:53:24.550Z,24.74
2023-03-04T23:56:14.832Z,24.80
2023-03-04T23:59:04.838Z,24.80
